createdAt,value
2022-10-03T00:00:04.806Z,10.25
2022-10-03T00:03:05.685Z,10.27
2022-10-03T00:05:46.206Z,10.17
2022-10-03T00:08:37.574Z,10.23
2022-10-03T00:11:28.687Z,10.24
2022-10-03T00:14:03.936Z,10.23
2022-10-03T00:16:46.421Z,10.22
2022-10-03T00:19:23.237Z,10.22
2022-10-03T00:22:07.674Z,10.22
2022-10-03T00:25:19.075Z,10.23
2022-10-03T00:27:57.054Z,10.27
2022-10-03T00:30:26.351Z,10.32
2022-10-03T00:33:20.176Z,10.35
2022-10-03T00:36:07.655Z,10.22
2022-10-03T00:38:56.983Z,10.31
2022-10-03T00:41:39.735Z,10.26
2022-10-03T00:44:41.833Z,10.20
2022-10-03T00:47:35.844Z,10.22
2022-10-03T00:50:39.121Z,10.22
2022-10-03T00:53:27.047Z,10.26
2022-10-03T00:56:28.823Z,10.27
2022-10-03T00:59:14.328Z,10.25
2022-10-03T01:01:47.074Z,10.22
2022-10-03T01:04:40.690Z,10.18
2022-10-03T01:07:30.740Z,10.13
2022-10-03T01:10:28.128Z,10.13
2022-10-03T01:13:15.592Z,10.13
2022-10-03T01:15:53.161Z,10.17
2022-10-03T01:18:44.872Z,10.21
2022-10-03T01:21:27.713Z,10.09
2022-10-03T01:24:27.543Z,10.22
2022-10-03T01:27:11.950Z,10.16
2022-10-03T01:30:11.543Z,10.15
2022-10-03T01:32:48.896Z,10.12
2022-10-03T01:35:35.070Z,9.93
2022-10-03T01:38:21.091Z,10.07
2022-10-03T01:41:00.360Z,10.09
2022-10-03T01:43:38.237Z,10.08
2022-10-03T01:46:30.678Z,10.03
2022-10-03T01:49:13.939Z,9.94
2022-10-03T01:52:05.060Z,9.98
2022-10-03T01:54:59.425Z,9.93
2022-10-03T01:57:52.481Z,10.06
2022-10-03T02:00:26.487Z,10.18
2022-10-03T02:03:23.014Z,10.31
2022-10-03T02:06:28.519Z,10.40
2022-10-03T02:12:10.045Z,10.32
2022-10-03T02:15:34.322Z,10.03
2022-10-03T02:18:15.243Z,10.36
2022-10-03T02:20:49.702Z,10.33
2022-10-03T02:23:39.939Z,10.23
2022-10-03T02:26:46.013Z,10.17
2022-10-03T02:29:32.329Z,10.13
2022-10-03T02:32:54.121Z,10.11
2022-10-03T02:35:57.756Z,10.11
2022-10-03T02:39:01.767Z,10.15
2022-10-03T02:42:06.394Z,10.17
2022-10-03T02:45:13.718Z,10.16
2022-10-03T02:48:31.171Z,10.10
2022-10-03T02:51:37.161Z,10.05
2022-10-03T02:54:38.749Z,9.99
2022-10-03T02:57:48.272Z,9.95
2022-10-03T03:00:21.927Z,9.91
2022-10-03T03:03:39.792Z,9.85
2022-10-03T03:06:31.019Z,9.80
2022-10-03T03:09:42.775Z,9.78
2022-10-03T03:12:43.484Z,9.74
2022-10-03T03:15:55.908Z,9.70
2022-10-03T03:18:34.467Z,9.71
2022-10-03T03:21:12.719Z,9.78
2022-10-03T03:24:01.458Z,9.84
2022-10-03T03:26:55.232Z,9.90
2022-10-03T03:29:36.818Z,9.85
2022-10-03T03:32:28.262Z,9.82
2022-10-03T03:35:06.010Z,9.77
2022-10-03T03:37:41.826Z,9.81
2022-10-03T03:40:29.568Z,9.91
2022-10-03T03:43:51.485Z,10.00
2022-10-03T03:46:38.840Z,10.07
2022-10-03T03:49:20.338Z,10.16
2022-10-03T03:52:04.410Z,10.13
2022-10-03T03:54:55.444Z,10.29
2022-10-03T03:58:02.719Z,10.32
2022-10-03T04:01:01.129Z,10.37
2022-10-03T04:03:51.180Z,10.34
2022-10-03T04:06:36.531Z,10.27
2022-10-03T04:09:42.117Z,10.16
2022-10-03T04:12:37.444Z,10.08
2022-10-03T04:15:32.439Z,10.11
2022-10-03T04:18:48.182Z,10.17
2022-10-03T04:21:52.337Z,10.25
2022-10-03T04:24:54.325Z,10.31
2022-10-03T04:27:40.363Z,10.39
2022-10-03T04:30:12.997Z,10.47
2022-10-03T04:33:00.569Z,10.53
2022-10-03T04:36:07.916Z,10.54
2022-10-03T04:38:47.067Z,10.39
2022-10-03T04:41:28.627Z,10.35
2022-10-03T04:44:03.651Z,10.29
2022-10-03T04:46:36.548Z,10.22
2022-10-03T04:49:20.164Z,9.99
2022-10-03T04:51:58.498Z,10.03
2022-10-03T04:54:43.522Z,10.00
2022-10-03T04:57:25.721Z,9.93
2022-10-03T05:00:04.032Z,9.88
2022-10-03T05:02:43.060Z,9.86
2022-10-03T05:05:41.201Z,9.85
2022-10-03T05:08:21.495Z,9.83
2022-10-03T05:11:03.928Z,9.80
2022-10-03T05:13:42.387Z,9.83
2022-10-03T05:16:23.896Z,9.86
2022-10-03T05:18:58.056Z,9.90
2022-10-03T05:21:38.131Z,9.91
2022-10-03T05:24:17.947Z,9.97
2022-10-03T05:26:59.243Z,9.92
2022-10-03T05:29:37.949Z,9.94
2022-10-03T05:32:17.974Z,9.94
2022-10-03T05:35:22.906Z,9.98
2022-10-03T05:38:26.748Z,9.99
2022-10-03T05:41:04.523Z,9.93
2022-10-03T05:43:49.929Z,9.87
2022-10-03T05:46:49.214Z,9.84
2022-10-03T05:49:46.993Z,9.85
2022-10-03T05:52:55.212Z,9.88
2022-10-03T05:55:54.858Z,9.97
2022-10-03T05:58:46.569Z,10.09
2022-10-03T06:01:56.451Z,10.22
2022-10-03T06:04:50.971Z,10.30
2022-10-03T06:07:48.112Z,10.40
2022-10-03T06:10:44.539Z,10.39
2022-10-03T06:13:21.290Z,10.38
2022-10-03T06:15:58.793Z,10.36
2022-10-03T06:18:53.449Z,10.37
2022-10-03T06:21:47.536Z,10.41
2022-10-03T06:24:39.910Z,10.47
2022-10-03T06:27:42.056Z,10.50
2022-10-03T06:30:50.608Z,10.53
2022-10-03T06:34:09.337Z,10.59
2022-10-03T06:37:06.876Z,10.64
2022-10-03T06:40:29.093Z,10.74
2022-10-03T06:43:17.470Z,10.79
2022-10-03T06:46:22.645Z,10.89
2022-10-03T06:49:14.432Z,10.92
2022-10-03T06:51:58.160Z,10.99
2022-10-03T06:55:09.074Z,11.11
2022-10-03T06:58:07.787Z,11.20
2022-10-03T07:00:49.911Z,11.28
2022-10-03T07:03:49.429Z,11.30
2022-10-03T07:06:48.395Z,11.06
2022-10-03T07:09:54.287Z,11.19
2022-10-03T07:13:02.426Z,11.38
2022-10-03T07:16:20.915Z,11.63
2022-10-03T07:19:29.456Z,11.83
2022-10-03T07:22:43.699Z,11.84
2022-10-03T07:25:44.724Z,11.72
2022-10-03T07:28:48.168Z,11.69
2022-10-03T07:31:34.629Z,11.67
2022-10-03T07:34:40.388Z,11.69
2022-10-03T07:37:46.495Z,11.67
2022-10-03T07:40:50.273Z,11.69
2022-10-03T07:43:53.699Z,11.75
2022-10-03T07:47:09.568Z,11.84
2022-10-03T07:50:10.174Z,11.95
2022-10-03T07:53:11.775Z,12.01
2022-10-03T07:56:16.189Z,12.09
2022-10-03T07:59:23.301Z,12.22
2022-10-03T08:02:08.930Z,12.33
2022-10-03T08:05:33.048Z,12.47
2022-10-03T08:08:50.335Z,12.63
2022-10-03T08:12:03.168Z,12.77
2022-10-03T08:14:50.503Z,12.89
2022-10-03T08:18:16.885Z,13.02
2022-10-03T08:20:54.515Z,13.08
2022-10-03T08:24:03.662Z,13.15
2022-10-03T08:27:00.508Z,13.26
2022-10-03T08:30:07.314Z,13.37
2022-10-03T08:32:52.038Z,13.46
2022-10-03T08:35:45.907Z,13.56
2022-10-03T08:38:39.365Z,13.65
2022-10-03T08:41:51.999Z,13.78
2022-10-03T08:45:01.792Z,13.89
2022-10-03T08:47:56.168Z,13.95
2022-10-03T08:51:04.260Z,14.06
2022-10-03T08:54:12.363Z,14.13
2022-10-03T08:57:00.201Z,14.21
2022-10-03T09:00:09.753Z,14.26
2022-10-03T09:03:31.494Z,14.36
2022-10-03T09:06:31.881Z,14.50
2022-10-03T09:09:38.456Z,14.62
2022-10-03T09:12:43.798Z,14.94
2022-10-03T09:15:30.299Z,15.29
2022-10-03T09:18:42.946Z,15.51
2022-10-03T09:21:49.583Z,15.65
2022-10-03T09:24:37.849Z,15.95
2022-10-03T09:27:31.876Z,16.11
2022-10-03T09:30:24.736Z,16.06
2022-10-03T09:33:31.666Z,16.02
2022-10-03T09:36:25.190Z,15.98
2022-10-03T09:39:26.587Z,16.09
2022-10-03T09:42:23.258Z,16.26
2022-10-03T09:45:22.745Z,16.20
2022-10-03T09:48:42.498Z,16.08
2022-10-03T09:51:34.437Z,16.10
2022-10-03T09:54:35.643Z,16.21
2022-10-03T09:57:38.791Z,16.17
2022-10-03T10:00:23.865Z,16.11
2022-10-03T10:03:37.431Z,16.36
2022-10-03T10:06:29.269Z,16.56
2022-10-03T10:09:26.711Z,16.50
2022-10-03T10:12:42.549Z,16.33
2022-10-03T10:15:47.437Z,16.27
2022-10-03T10:19:07.956Z,16.21
2022-10-03T10:22:11.636Z,15.97
2022-10-03T10:25:24.875Z,15.87
2022-10-03T10:28:15.201Z,16.09
2022-10-03T10:31:03.338Z,16.36
2022-10-03T10:34:06.440Z,16.87
2022-10-03T10:37:10.803Z,17.19
2022-10-03T10:40:12.626Z,17.05
2022-10-03T10:43:14.802Z,16.96
2022-10-03T10:45:56.132Z,16.92
2022-10-03T10:49:22.925Z,16.92
2022-10-03T10:52:34.068Z,17.05
2022-10-03T10:55:52.333Z,17.45
2022-10-03T10:58:58.079Z,17.51
2022-10-03T11:02:11.370Z,17.56
2022-10-03T11:05:21.970Z,17.68
2022-10-03T11:08:43.033Z,17.71
2022-10-03T11:11:44.277Z,17.64
2022-10-03T11:14:38.422Z,17.30
2022-10-03T11:17:39.600Z,17.25
2022-10-03T11:21:04.717Z,17.48
2022-10-03T11:24:07.833Z,17.31
2022-10-03T11:27:20.505Z,17.09
2022-10-03T11:30:19.354Z,17.02
2022-10-03T11:33:24.443Z,16.99
2022-10-03T11:36:13.420Z,16.83
2022-10-03T11:38:53.770Z,16.79
2022-10-03T11:41:34.881Z,16.69
2022-10-03T11:44:16.581Z,16.69
2022-10-03T11:46:58.063Z,16.69
2022-10-03T11:49:58.393Z,16.67
2022-10-03T11:52:32.973Z,16.72
2022-10-03T11:55:17.278Z,16.71
2022-10-03T11:57:52.670Z,16.81
2022-10-03T12:00:23.306Z,16.92
2022-10-03T12:03:13.763Z,16.92
2022-10-03T12:05:52.733Z,16.79
2022-10-03T12:08:46.785Z,16.76
2022-10-03T12:11:20.827Z,16.81
2022-10-03T12:14:12.544Z,16.88
2022-10-03T12:16:57.768Z,16.94
2022-10-03T12:19:58.108Z,16.98
2022-10-03T12:22:46.930Z,17.04
2022-10-03T12:25:23.780Z,17.03
2022-10-03T12:28:12.108Z,17.00
2022-10-03T12:30:51.634Z,17.17
2022-10-03T12:33:32.772Z,17.21
2022-10-03T12:36:10.676Z,17.27
2022-10-03T12:38:56.053Z,17.21
2022-10-03T12:41:43.763Z,17.26
2022-10-03T12:44:27.465Z,17.33
2022-10-03T12:47:15.893Z,17.33
2022-10-03T12:49:54.321Z,17.30
2022-10-03T12:52:27.162Z,17.20
2022-10-03T12:55:10.115Z,17.24
2022-10-03T12:57:49.780Z,17.26
2022-10-03T13:00:24.913Z,17.26
2022-10-03T13:03:12.220Z,17.23
2022-10-03T13:06:38.898Z,17.18
2022-10-03T13:09:37.240Z,17.14
2022-10-03T13:12:23.006Z,17.11
2022-10-03T13:15:45.564Z,17.05
2022-10-03T13:18:35.260Z,16.96
2022-10-03T13:21:33.424Z,16.82
2022-10-03T13:24:04.590Z,16.68
2022-10-03T13:29:40.784Z,16.77
2022-10-03T13:32:18.515Z,16.85
2022-10-03T13:35:21.407Z,17.03
2022-10-03T13:38:07.311Z,17.10
2022-10-03T13:40:46.362Z,17.18
2022-10-03T13:43:20.040Z,17.31
2022-10-03T13:45:53.550Z,17.47
2022-10-03T13:48:28.363Z,17.47
2022-10-03T13:51:05.509Z,17.39
2022-10-03T13:53:51.863Z,17.30
2022-10-03T13:56:39.408Z,17.23
2022-10-03T13:59:25.702Z,17.41
2022-10-03T14:02:11.122Z,17.42
2022-10-03T14:05:16.821Z,17.27
2022-10-03T14:07:53.919Z,17.21
2022-10-03T14:10:51.930Z,16.97
2022-10-03T14:13:32.192Z,17.09
2022-10-03T14:16:06.955Z,17.02
2022-10-03T14:18:45.076Z,16.98
2022-10-03T14:21:34.072Z,16.96
2022-10-03T14:24:14.379Z,16.92
2022-10-03T14:26:56.376Z,16.82
2022-10-03T14:29:32.457Z,16.62
2022-10-03T14:32:28.186Z,16.58
2022-10-03T14:35:09.248Z,16.55
2022-10-03T14:37:43.647Z,16.56
2022-10-03T14:40:23.830Z,16.66
2022-10-03T14:43:31.092Z,16.96
2022-10-03T14:46:04.106Z,17.24
2022-10-03T14:48:40.036Z,17.47
2022-10-03T14:51:24.259Z,17.64
2022-10-03T14:53:57.279Z,17.72
2022-10-03T14:56:46.066Z,17.79
2022-10-03T14:59:19.187Z,17.68
2022-10-03T15:01:55.708Z,17.50
2022-10-03T15:04:34.976Z,17.36
2022-10-03T15:07:03.708Z,17.18
2022-10-03T15:09:43.018Z,17.07
2022-10-03T15:12:24.571Z,17.00
2022-10-03T15:15:01.345Z,16.91
2022-10-03T15:18:00.400Z,16.85
2022-10-03T15:20:42.970Z,16.76
2022-10-03T15:23:21.048Z,16.69
2022-10-03T15:25:53.824Z,16.65
2022-10-03T15:28:27.696Z,16.66
2022-10-03T15:31:08.407Z,16.63
2022-10-03T15:33:38.706Z,16.60
2022-10-03T15:36:15.864Z,16.57
2022-10-03T15:38:47.430Z,16.55
2022-10-03T15:41:18.063Z,16.53
2022-10-03T15:44:03.925Z,16.49
2022-10-03T15:46:35.805Z,16.45
2022-10-03T15:49:08.418Z,16.40
2022-10-03T15:51:39.620Z,16.36
2022-10-03T15:54:10.215Z,16.33
2022-10-03T15:56:42.253Z,16.29
2022-10-03T15:59:22.013Z,16.23
2022-10-03T16:01:54.521Z,16.19
2022-10-03T16:04:35.576Z,16.13
2022-10-03T16:07:19.464Z,16.09
2022-10-03T16:09:56.223Z,16.05
2022-10-03T16:12:50.658Z,16.00
2022-10-03T16:15:26.786Z,15.95
2022-10-03T16:17:57.927Z,15.79
2022-10-03T16:20:37.568Z,15.81
2022-10-03T16:23:20.804Z,15.81
2022-10-03T16:25:55.527Z,15.76
2022-10-03T16:28:29.484Z,15.73
2022-10-03T16:31:14.045Z,15.66
2022-10-03T16:33:48.434Z,15.65
2022-10-03T16:36:23.343Z,15.50
2022-10-03T16:38:59.279Z,15.57
2022-10-03T16:41:31.769Z,15.53
2022-10-03T16:44:02.841Z,15.46
2022-10-03T16:46:40.686Z,15.40
2022-10-03T16:49:29.863Z,15.36
2022-10-03T16:52:04.527Z,15.27
2022-10-03T16:54:34.708Z,15.29
2022-10-03T16:57:06.980Z,15.25
2022-10-03T16:59:37.466Z,15.22
2022-10-03T17:02:08.214Z,15.22
2022-10-03T17:04:39.917Z,15.18
2022-10-03T17:07:16.082Z,15.12
2022-10-03T17:09:48.462Z,15.08
2022-10-03T17:12:20.076Z,15.05
2022-10-03T17:14:49.431Z,15.02
2022-10-03T17:17:29.936Z,14.99
2022-10-03T17:20:08.865Z,14.94
2022-10-03T17:22:41.943Z,14.90
2022-10-03T17:25:36.230Z,14.89
2022-10-03T17:28:07.382Z,14.86
2022-10-03T17:30:45.978Z,14.85
2022-10-03T17:33:23.477Z,14.81
2022-10-03T17:36:00.224Z,14.77
2022-10-03T17:38:49.305Z,14.73
2022-10-03T17:41:22.257Z,14.64
2022-10-03T17:44:01.682Z,14.55
2022-10-03T17:46:40.112Z,14.49
2022-10-03T17:49:21.894Z,14.41
2022-10-03T17:51:52.346Z,14.33
2022-10-03T17:54:25.432Z,14.28
2022-10-03T17:56:55.135Z,14.24
2022-10-03T17:59:29.143Z,14.24
2022-10-03T18:02:02.385Z,14.21
2022-10-03T18:04:38.275Z,14.23
2022-10-03T18:07:17.609Z,14.20
2022-10-03T18:09:49.104Z,14.05
2022-10-03T18:12:25.144Z,14.07
2022-10-03T18:15:40.919Z,13.96
2022-10-03T18:18:43.724Z,13.84
2022-10-03T18:21:20.259Z,13.73
2022-10-03T18:24:07.672Z,13.70
2022-10-03T18:26:38.623Z,13.62
2022-10-03T18:29:21.917Z,13.57
2022-10-03T18:31:53.890Z,13.50
2022-10-03T18:34:28.167Z,13.49
2022-10-03T18:36:57.823Z,13.46
2022-10-03T18:39:32.597Z,13.53
2022-10-03T18:42:03.219Z,13.54
2022-10-03T18:44:46.287Z,13.48
2022-10-03T18:47:23.280Z,13.45
2022-10-03T18:50:11.401Z,13.41
2022-10-03T18:52:52.395Z,13.40
2022-10-03T18:55:27.848Z,13.31
2022-10-03T18:58:13.324Z,13.28
2022-10-03T19:00:51.389Z,13.21
2022-10-03T19:03:24.339Z,13.17
2022-10-03T19:05:58.245Z,13.10
2022-10-03T19:08:31.523Z,13.07
2022-10-03T19:11:12.988Z,12.97
2022-10-03T19:13:49.392Z,12.99
2022-10-03T19:16:43.202Z,12.96
2022-10-03T19:19:16.364Z,12.94
2022-10-03T19:21:45.466Z,12.91
2022-10-03T19:24:34.424Z,12.89
2022-10-03T19:27:14.975Z,12.82
2022-10-03T19:29:46.462Z,12.83
2022-10-03T19:32:23.335Z,12.63
2022-10-03T19:34:52.912Z,12.80
2022-10-03T19:37:44.545Z,12.69
2022-10-03T19:40:31.178Z,12.77
2022-10-03T19:43:05.738Z,12.67
2022-10-03T19:45:49.811Z,12.73
2022-10-03T19:48:18.454Z,12.73
2022-10-03T19:50:46.298Z,12.72
2022-10-03T19:53:20.216Z,12.73
2022-10-03T19:55:51.633Z,12.69
2022-10-03T19:58:24.294Z,12.69
2022-10-03T20:00:55.176Z,12.69
2022-10-03T20:03:35.737Z,12.66
2022-10-03T20:06:09.471Z,12.67
2022-10-03T20:08:49.437Z,12.67
2022-10-03T20:11:33.342Z,12.65
2022-10-03T20:14:02.604Z,12.65
2022-10-03T20:16:35.920Z,12.65
2022-10-03T20:19:10.633Z,12.64
2022-10-03T20:21:38.507Z,12.60
2022-10-03T20:24:14.216Z,12.62
2022-10-03T20:26:50.554Z,12.65
2022-10-03T20:29:27.312Z,12.66
2022-10-03T20:32:00.919Z,12.64
2022-10-03T20:34:29.493Z,12.70
2022-10-03T20:37:27.877Z,12.75
2022-10-03T20:40:01.976Z,12.78
2022-10-03T20:42:39.762Z,12.79
2022-10-03T20:45:16.881Z,12.80
2022-10-03T20:48:05.975Z,12.75
2022-10-03T20:50:40.567Z,12.59
2022-10-03T20:53:17.231Z,12.56
2022-10-03T20:55:49.807Z,12.50
2022-10-03T20:58:29.831Z,12.41
2022-10-03T21:01:03.300Z,12.35
2022-10-03T21:03:39.354Z,12.26
2022-10-03T21:06:30.228Z,12.23
2022-10-03T21:09:05.513Z,12.14
2022-10-03T21:11:40.931Z,12.14
2022-10-03T21:14:19.372Z,12.10
2022-10-03T21:16:51.947Z,12.10
2022-10-03T21:19:25.722Z,12.11
2022-10-03T21:21:56.750Z,12.07
2022-10-03T21:24:28.777Z,12.08
2022-10-03T21:27:03.437Z,12.08
2022-10-03T21:29:34.988Z,12.04
2022-10-03T21:32:25.205Z,12.04
2022-10-03T21:35:10.636Z,12.01
2022-10-03T21:37:49.868Z,11.96
2022-10-03T21:40:35.464Z,11.95
2022-10-03T21:43:36.057Z,11.94
2022-10-03T21:46:14.602Z,11.92
2022-10-03T21:49:09.588Z,11.89
2022-10-03T21:51:41.470Z,11.83
2022-10-03T21:54:32.092Z,11.80
2022-10-03T21:57:15.188Z,11.61
2022-10-03T22:00:11.620Z,11.78
2022-10-03T22:02:52.136Z,11.76
2022-10-03T22:05:36.140Z,11.75
2022-10-03T22:08:22.303Z,11.74
2022-10-03T22:11:15.127Z,11.69
2022-10-03T22:13:49.900Z,11.69
2022-10-03T22:16:32.128Z,11.66
2022-10-03T22:19:27.478Z,11.65
2022-10-03T22:22:21.509Z,11.65
2022-10-03T22:25:06.974Z,11.65
2022-10-03T22:27:42.936Z,11.65
2022-10-03T22:30:15.829Z,11.68
2022-10-03T22:33:10.447Z,11.72
2022-10-03T22:35:52.647Z,11.76
2022-10-03T22:38:25.761Z,11.66
2022-10-03T22:40:56.190Z,11.83
2022-10-03T22:43:25.937Z,11.87
2022-10-03T22:45:56.048Z,11.89
2022-10-03T22:48:28.839Z,11.91
2022-10-03T22:50:59.293Z,11.98
2022-10-03T22:53:32.286Z,12.01
2022-10-03T22:56:02.535Z,12.04
2022-10-03T22:58:36.888Z,12.06
2022-10-03T23:01:08.603Z,12.09
2022-10-03T23:03:39.981Z,12.08
2022-10-03T23:06:39.163Z,12.06
2022-10-03T23:09:22.891Z,12.00
2022-10-03T23:11:54.843Z,11.99
2022-10-03T23:14:26.526Z,11.96
2022-10-03T23:17:10.346Z,11.93
2022-10-03T23:19:53.878Z,11.71
2022-10-03T23:22:27.643Z,11.84
2022-10-03T23:25:02.094Z,11.80
2022-10-03T23:28:11.206Z,11.76
2022-10-03T23:30:50.708Z,11.70
2022-10-03T23:33:55.586Z,11.64
2022-10-03T23:36:25.390Z,11.58
2022-10-03T23:39:01.933Z,11.53
2022-10-03T23:41:57.345Z,11.44
2022-10-03T23:44:49.476Z,11.45
2022-10-03T23:47:48.500Z,11.41
2022-10-03T23:53:31.395Z,11.40
2022-10-03T23:56:03.315Z,11.42
2022-10-03T23:58:33.756Z,11.47
